createdAt,value
2022-07-29T00:01:22.489Z,27.70
2022-07-29T00:03:50.739Z,27.70
2022-07-29T00:06:19.109Z,28.10
2022-07-29T00:08:47.327Z,27.50
2022-07-29T00:11:15.570Z,27.40
2022-07-29T00:13:49.030Z,27.60
2022-07-29T00:16:20.516Z,27.80
2022-07-29T00:18:48.801Z,27.20
2022-07-29T00:21:17.364Z,26.30
2022-07-29T00:23:45.638Z,27.80
2022-07-29T00:26:13.786Z,26.60
2022-07-29T00:28:42.171Z,26.10
2022-07-29T00:31:10.444Z,27.50
2022-07-29T00:33:40.039Z,26.00
2022-07-29T00:36:07.425Z,26.30
2022-07-29T00:38:35.712Z,27.20
2022-07-29T00:41:04.000Z,25.90
2022-07-29T00:43:32.495Z,26.80
2022-07-29T00:46:00.726Z,27.00
2022-07-29T00:48:28.975Z,26.70
2022-07-29T00:51:00.228Z,26.20
2022-07-29T00:53:29.084Z,27.20
2022-07-29T00:55:58.069Z,28.00
2022-07-29T00:58:26.831Z,26.40
2022-07-29T01:00:55.316Z,26.10
2022-07-29T01:03:23.673Z,25.90
2022-07-29T01:05:52.611Z,26.20
2022-07-29T01:08:23.363Z,26.90
2022-07-29T01:10:52.966Z,27.20
2022-07-29T01:13:24.337Z,27.40
2022-07-29T01:15:58.622Z,26.40
2022-07-29T01:18:32.866Z,25.50
2022-07-29T01:21:29.874Z,26.30
2022-07-29T01:24:22.968Z,26.60
2022-07-29T01:26:58.648Z,26.80
2022-07-29T01:29:38.635Z,26.40
2022-07-29T01:32:28.446Z,26.90
2022-07-29T01:35:04.373Z,26.70
2022-07-29T01:37:40.618Z,28.20
2022-07-29T01:40:16.048Z,27.60
2022-07-29T01:42:46.654Z,27.00
2022-07-29T01:45:25.335Z,27.30
2022-07-29T01:48:01.096Z,28.50
2022-07-29T01:50:33.451Z,27.50
2022-07-29T01:53:04.189Z,28.40
2022-07-29T01:55:36.145Z,28.30
2022-07-29T01:58:06.777Z,28.50
2022-07-29T02:00:37.011Z,28.50
2022-07-29T02:03:11.063Z,28.30
2022-07-29T02:05:42.334Z,28.70
2022-07-29T02:08:12.614Z,28.70
2022-07-29T02:10:42.835Z,28.70
2022-07-29T02:13:13.337Z,29.60
2022-07-29T02:15:45.446Z,28.90
2022-07-29T02:18:17.775Z,29.70
2022-07-29T02:20:49.048Z,30.40
2022-07-29T02:23:22.953Z,31.60
2022-07-29T02:25:53.555Z,32.30
2022-07-29T02:28:23.999Z,32.30
2022-07-29T02:30:55.489Z,32.80
2022-07-29T02:33:25.634Z,34.60
2022-07-29T02:35:54.733Z,34.30
2022-07-29T02:38:42.047Z,35.50
2022-07-29T02:41:13.684Z,35.00
2022-07-29T02:43:44.426Z,35.50
2022-07-29T02:46:28.979Z,37.00
2022-07-29T02:49:04.025Z,38.00
2022-07-29T02:51:43.949Z,38.20
2022-07-29T02:54:21.676Z,38.50
2022-07-29T02:56:53.642Z,40.10
2022-07-29T02:59:24.920Z,39.80
2022-07-29T03:01:56.593Z,40.80
2022-07-29T03:04:29.396Z,40.90
2022-07-29T03:07:02.380Z,42.10
2022-07-29T03:09:32.483Z,42.60
2022-07-29T03:12:02.187Z,42.60
2022-07-29T03:14:31.218Z,44.40
2022-07-29T03:17:01.515Z,44.50
2022-07-29T03:19:29.984Z,45.10
2022-07-29T03:21:59.188Z,46.50
2022-07-29T03:24:32.438Z,48.30
2022-07-29T03:27:01.110Z,49.60
2022-07-29T03:29:33.257Z,48.00
2022-07-29T03:32:08.381Z,51.60
2022-07-29T03:34:38.023Z,52.00
2022-07-29T03:37:06.817Z,52.00
2022-07-29T03:39:41.143Z,51.90
2022-07-29T03:42:12.452Z,53.00
2022-07-29T03:44:42.966Z,51.20
2022-07-29T03:47:15.887Z,53.50
2022-07-29T03:49:46.635Z,53.00
2022-07-29T03:52:15.390Z,54.10
2022-07-29T03:54:43.612Z,55.00
2022-07-29T03:57:13.901Z,55.30
2022-07-29T03:59:43.756Z,81.00
2022-07-29T04:02:15.676Z,57.40
2022-07-29T04:04:47.331Z,56.40
2022-07-29T04:07:16.585Z,57.30
2022-07-29T04:09:44.870Z,58.70
2022-07-29T04:12:13.229Z,58.30
2022-07-29T04:14:41.588Z,59.60
2022-07-29T04:17:09.875Z,61.60
2022-07-29T04:19:39.495Z,64.50
2022-07-29T04:22:07.733Z,65.30
2022-07-29T04:24:36.987Z,66.50
2022-07-29T04:27:05.313Z,67.70
2022-07-29T04:29:33.589Z,70.30
2022-07-29T04:32:01.858Z,71.70
2022-07-29T04:34:30.135Z,71.20
2022-07-29T04:36:59.818Z,71.90
2022-07-29T04:39:29.587Z,70.70
2022-07-29T04:41:59.070Z,72.80
2022-07-29T04:44:28.817Z,74.00
2022-07-29T04:46:58.685Z,74.10
2022-07-29T04:49:27.474Z,77.40
2022-07-29T04:51:56.111Z,76.00
2022-07-29T04:54:25.915Z,75.80
2022-07-29T04:56:54.678Z,76.20
2022-07-29T04:59:28.148Z,74.60
2022-07-29T05:02:27.614Z,72.30
2022-07-29T05:04:55.917Z,69.90
2022-07-29T05:07:24.200Z,62.30
2022-07-29T05:09:54.161Z,60.60
2022-07-29T05:12:22.321Z,61.00
2022-07-29T05:14:50.602Z,60.60
2022-07-29T05:17:18.925Z,61.00
2022-07-29T05:19:47.406Z,61.80
2022-07-29T05:22:15.736Z,60.00
2022-07-29T05:24:43.991Z,58.70
2022-07-29T05:27:13.905Z,55.60
2022-07-29T05:29:45.307Z,57.30
2022-07-29T05:32:14.455Z,56.90
2022-07-29T05:35:33.436Z,55.10
2022-07-29T05:38:06.179Z,55.70
2022-07-29T05:40:35.784Z,52.90
2022-07-29T05:43:05.462Z,73.40
2022-07-29T05:45:34.851Z,50.20
2022-07-29T05:48:17.627Z,50.30
2022-07-29T05:50:45.783Z,49.90
2022-07-29T05:53:19.723Z,48.90
2022-07-29T05:55:49.150Z,49.10
2022-07-29T05:58:18.894Z,47.50
2022-07-29T06:00:47.564Z,47.60
2022-07-29T06:03:15.948Z,48.30
2022-07-29T06:05:44.160Z,47.80
2022-07-29T06:08:42.366Z,48.40
2022-07-29T06:11:10.688Z,49.70
2022-07-29T06:13:40.642Z,48.20
2022-07-29T06:16:08.926Z,46.90
2022-07-29T06:18:37.253Z,45.40
2022-07-29T06:21:10.909Z,44.20
2022-07-29T06:23:39.454Z,43.50
2022-07-29T06:26:08.464Z,60.30
2022-07-29T06:28:36.694Z,39.10
2022-07-29T06:31:07.502Z,39.30
2022-07-29T06:33:38.698Z,38.10
2022-07-29T06:36:07.610Z,37.00
2022-07-29T06:38:42.000Z,37.40
2022-07-29T06:41:13.658Z,36.20
2022-07-29T06:43:52.599Z,35.40
2022-07-29T06:46:24.677Z,35.00
2022-07-29T06:48:53.794Z,34.20
2022-07-29T06:51:23.715Z,34.50
2022-07-29T06:54:00.667Z,33.00
2022-07-29T06:56:32.390Z,33.50
2022-07-29T06:59:07.274Z,32.70
2022-07-29T07:01:38.067Z,32.00
2022-07-29T07:04:06.804Z,32.70
2022-07-29T07:06:35.273Z,32.20
2022-07-29T07:09:04.099Z,31.30
2022-07-29T07:11:32.633Z,31.00
2022-07-29T07:14:03.729Z,29.70
2022-07-29T07:16:44.236Z,27.10
2022-07-29T07:19:12.444Z,26.20
2022-07-29T07:21:42.768Z,24.90
2022-07-29T07:24:11.235Z,23.30
2022-07-29T07:26:40.670Z,23.30
2022-07-29T07:29:08.925Z,23.00
2022-07-29T07:31:38.218Z,22.00
2022-07-29T07:34:07.898Z,22.90
2022-07-29T07:36:36.179Z,21.70
2022-07-29T07:39:06.118Z,21.40
2022-07-29T07:41:34.389Z,22.50
2022-07-29T07:44:02.909Z,22.70
2022-07-29T07:46:31.377Z,22.40
2022-07-29T07:49:01.728Z,23.70
2022-07-29T07:51:31.660Z,24.20
2022-07-29T07:54:00.013Z,23.00
2022-07-29T07:56:31.969Z,23.00
2022-07-29T07:59:03.306Z,22.90
2022-07-29T08:01:48.397Z,22.60
2022-07-29T08:04:23.598Z,22.80
2022-07-29T08:06:57.090Z,22.60
2022-07-29T08:09:30.352Z,21.90
2022-07-29T08:11:59.821Z,21.90
2022-07-29T08:14:28.135Z,22.30
2022-07-29T08:16:56.455Z,20.90
2022-07-29T08:19:24.789Z,19.30
2022-07-29T08:21:54.955Z,19.20
2022-07-29T08:24:42.286Z,18.50
2022-07-29T08:27:33.337Z,19.80
2022-07-29T08:29:58.803Z,18.90
2022-07-29T08:32:51.257Z,19.40
2022-07-29T08:35:15.318Z,19.10
2022-07-29T08:37:43.735Z,17.90
2022-07-29T08:40:15.076Z,18.50
2022-07-29T08:42:47.758Z,16.60
2022-07-29T08:45:15.954Z,16.80
2022-07-29T08:47:46.502Z,16.60
2022-07-29T08:50:14.754Z,16.70
2022-07-29T08:52:44.190Z,15.60
2022-07-29T08:55:14.571Z,16.40
2022-07-29T08:57:54.412Z,15.70
2022-07-29T09:00:27.160Z,28.40
2022-07-29T09:03:00.187Z,14.30
2022-07-29T09:05:29.431Z,13.30
2022-07-29T09:07:58.358Z,27.20
2022-07-29T09:10:28.378Z,11.70
2022-07-29T09:12:57.150Z,11.60
2022-07-29T09:15:25.958Z,11.90
2022-07-29T09:17:54.214Z,11.60
2022-07-29T09:20:24.099Z,10.20
2022-07-29T09:22:54.115Z,10.30
2022-07-29T09:25:37.310Z,9.20
2022-07-29T09:28:09.880Z,9.30
2022-07-29T09:30:41.262Z,8.90
2022-07-29T09:33:09.536Z,9.30
2022-07-29T09:35:41.816Z,8.80
2022-07-29T09:38:24.997Z,8.90
2022-07-29T09:41:05.365Z,9.70
2022-07-29T09:43:34.697Z,9.00
2022-07-29T09:46:13.003Z,8.70
2022-07-29T09:48:46.096Z,8.30
2022-07-29T09:51:26.884Z,9.30
2022-07-29T09:54:24.174Z,10.40
2022-07-29T09:56:54.595Z,10.50
2022-07-29T09:59:27.361Z,11.30
2022-07-29T10:01:55.849Z,9.70
2022-07-29T10:04:24.409Z,10.20
2022-07-29T10:07:04.440Z,10.40
2022-07-29T10:09:33.756Z,10.10
2022-07-29T10:12:11.868Z,8.60
2022-07-29T10:14:40.707Z,10.00
2022-07-29T10:17:10.690Z,10.00
2022-07-29T10:20:04.102Z,10.60
2022-07-29T10:22:52.553Z,10.00
2022-07-29T10:25:22.099Z,9.70
2022-07-29T10:27:53.207Z,10.10
2022-07-29T10:30:22.890Z,9.70
2022-07-29T10:33:05.486Z,9.10
2022-07-29T10:35:53.724Z,9.30
2022-07-29T10:38:49.472Z,8.50
2022-07-29T10:41:57.566Z,7.30
2022-07-29T10:44:28.789Z,5.40
2022-07-29T10:46:57.520Z,4.10
2022-07-29T10:49:30.631Z,3.70
2022-07-29T10:52:06.176Z,4.30
2022-07-29T10:54:52.541Z,2.40
2022-07-29T10:57:25.584Z,1.00
2022-07-29T11:00:32.457Z,1.00
2022-07-29T11:05:59.410Z,1.00
2022-07-29T11:08:29.077Z,2.80
2022-07-29T11:11:44.133Z,9.40
2022-07-29T11:14:16.567Z,2.60
2022-07-29T11:17:06.496Z,1.40
2022-07-29T11:19:40.227Z,2.90
2022-07-29T11:22:11.900Z,3.60
2022-07-29T11:24:50.052Z,4.90
2022-07-29T11:27:23.062Z,5.50
2022-07-29T11:29:56.783Z,6.50
2022-07-29T11:32:37.071Z,6.60
2022-07-29T11:35:17.208Z,8.00
2022-07-29T11:37:52.721Z,8.10
2022-07-29T11:40:24.235Z,7.80
2022-07-29T11:42:52.855Z,7.60
2022-07-29T11:49:31.720Z,6.70
2022-07-29T11:52:03.799Z,5.20
2022-07-29T11:54:57.476Z,5.80
2022-07-29T11:57:36.397Z,5.70
2022-07-29T12:00:12.132Z,5.80
2022-07-29T12:02:48.735Z,7.90
2022-07-29T12:05:35.825Z,6.60
2022-07-29T12:08:12.763Z,7.30
2022-07-29T12:10:44.551Z,8.80
2022-07-29T12:13:13.262Z,7.60
2022-07-29T12:15:45.986Z,7.20
2022-07-29T12:18:18.394Z,7.50
2022-07-29T12:20:48.801Z,6.70
2022-07-29T12:23:18.878Z,6.00
2022-07-29T12:25:49.812Z,5.20
2022-07-29T12:28:26.616Z,3.50
2022-07-29T12:30:56.009Z,2.90
2022-07-29T12:33:25.580Z,2.40
2022-07-29T12:36:06.815Z,2.90
2022-07-29T12:38:37.396Z,2.00
2022-07-29T12:41:05.945Z,1.00
2022-07-29T12:43:34.466Z,1.00
2022-07-29T12:46:15.776Z,1.00
2022-07-29T12:48:45.258Z,1.00
2022-07-29T12:51:17.783Z,1.00
2022-07-29T12:54:05.064Z,1.00
2022-07-29T12:56:42.867Z,1.00
2022-07-29T12:59:16.827Z,1.00
2022-07-29T13:01:45.689Z,1.00
2022-07-29T13:04:26.902Z,1.00
2022-07-29T13:07:04.800Z,1.00
2022-07-29T13:09:41.089Z,1.00
2022-07-29T13:12:11.195Z,1.00
2022-07-29T13:14:41.519Z,1.00
2022-07-29T13:17:11.318Z,1.00
2022-07-29T13:19:42.808Z,1.00
2022-07-29T13:22:13.411Z,1.00
2022-07-29T13:24:50.193Z,1.00
2022-07-29T13:27:19.085Z,1.00
2022-07-29T13:29:49.266Z,1.00
2022-07-29T13:32:17.811Z,1.00
2022-07-29T13:34:46.013Z,1.00
2022-07-29T13:37:15.860Z,1.00
2022-07-29T13:39:44.027Z,1.00
2022-07-29T13:42:21.746Z,2.60
2022-07-29T13:44:51.817Z,1.00
2022-07-29T13:47:20.293Z,1.00
2022-07-29T13:49:48.588Z,1.00
2022-07-29T13:52:18.545Z,1.00
2022-07-29T13:54:46.903Z,1.70
2022-07-29T13:57:16.376Z,1.00
2022-07-29T13:59:47.493Z,1.00
2022-07-29T14:02:18.895Z,1.00
2022-07-29T14:04:47.214Z,1.00
2022-07-29T14:07:16.215Z,1.00
2022-07-29T14:09:46.565Z,1.00
2022-07-29T14:12:14.774Z,1.00
2022-07-29T14:14:43.187Z,1.00
2022-07-29T14:17:11.613Z,1.00
2022-07-29T14:19:40.101Z,1.00
2022-07-29T14:22:10.720Z,2.00
2022-07-29T14:24:39.347Z,8.60
2022-07-29T14:27:09.931Z,99.90
2022-07-29T14:29:38.958Z,99.90
2022-07-29T14:32:08.730Z,93.10
2022-07-29T14:34:37.366Z,99.80
2022-07-29T14:37:06.963Z,99.90
2022-07-29T14:39:42.565Z,99.90
2022-07-29T14:42:14.201Z,99.90
2022-07-29T14:44:42.910Z,99.90
2022-07-29T14:47:13.081Z,99.90
2022-07-29T14:49:41.530Z,99.90
2022-07-29T14:52:09.705Z,99.90
2022-07-29T14:54:38.012Z,99.90
2022-07-29T14:57:06.242Z,99.90
2022-07-29T14:59:35.820Z,99.90
2022-07-29T15:02:04.478Z,99.90
2022-07-29T15:04:32.902Z,99.90
2022-07-29T15:07:01.199Z,99.90
2022-07-29T15:09:29.575Z,99.90
2022-07-29T15:11:58.024Z,99.90
2022-07-29T15:14:26.389Z,99.90
2022-07-29T15:16:56.043Z,99.90
2022-07-29T15:19:25.684Z,99.90
2022-07-29T15:21:54.853Z,99.90
2022-07-29T15:24:26.133Z,99.90
2022-07-29T15:26:54.840Z,99.90
2022-07-29T15:29:23.334Z,99.90
2022-07-29T15:31:51.569Z,99.90
2022-07-29T15:34:24.087Z,99.90
2022-07-29T15:36:53.706Z,99.90
2022-07-29T15:39:23.011Z,99.90
2022-07-29T15:41:51.940Z,99.90
2022-07-29T15:44:20.884Z,99.90
2022-07-29T15:47:05.673Z,99.90
2022-07-29T15:49:46.456Z,99.90
2022-07-29T15:52:18.992Z,99.90
2022-07-29T15:54:53.034Z,99.90
2022-07-29T15:57:21.602Z,99.90
2022-07-29T15:59:53.565Z,99.90
2022-07-29T16:02:21.872Z,99.90
2022-07-29T16:05:16.324Z,99.90
2022-07-29T16:07:44.494Z,99.90
2022-07-29T16:10:12.744Z,99.90
2022-07-29T16:12:40.940Z,99.90
2022-07-29T16:15:10.891Z,99.90
2022-07-29T16:17:44.323Z,99.90
2022-07-29T16:20:14.041Z,99.90
2022-07-29T16:22:43.952Z,99.90
2022-07-29T16:25:12.178Z,99.90
2022-07-29T16:27:40.423Z,99.90
2022-07-29T16:30:10.026Z,99.90
2022-07-29T16:32:39.815Z,99.90
2022-07-29T16:35:09.855Z,99.90
2022-07-29T16:37:39.148Z,99.90
2022-07-29T16:40:11.758Z,99.90
2022-07-29T16:42:47.718Z,99.90
2022-07-29T16:45:16.571Z,99.90
2022-07-29T16:47:46.305Z,99.90
2022-07-29T16:50:14.539Z,99.90
2022-07-29T16:52:42.774Z,99.90
2022-07-29T16:55:12.461Z,99.90
2022-07-29T16:57:42.052Z,99.90
2022-07-29T17:00:11.618Z,99.90
2022-07-29T17:02:39.882Z,99.90
2022-07-29T17:05:09.177Z,99.90
2022-07-29T17:07:37.470Z,99.90
2022-07-29T17:10:08.068Z,99.90
2022-07-29T17:12:38.910Z,99.90
2022-07-29T17:15:09.714Z,99.90
2022-07-29T17:17:55.158Z,99.90
2022-07-29T17:20:26.707Z,99.90
2022-07-29T17:22:55.090Z,99.90
2022-07-29T17:25:24.757Z,99.90
2022-07-29T17:28:00.485Z,99.90
2022-07-29T17:30:29.355Z,99.90
2022-07-29T17:32:57.558Z,99.90
2022-07-29T17:35:43.060Z,99.90
2022-07-29T17:38:11.541Z,99.90
2022-07-29T17:40:39.770Z,99.90
2022-07-29T17:43:10.301Z,99.90
2022-07-29T17:45:48.926Z,99.90
2022-07-29T17:48:19.725Z,99.90
2022-07-29T17:50:48.243Z,99.90
2022-07-29T17:53:16.923Z,99.90
2022-07-29T17:55:46.094Z,99.90
2022-07-29T17:58:16.039Z,99.90
2022-07-29T18:00:44.683Z,99.90
2022-07-29T18:03:13.160Z,99.90
2022-07-29T18:05:41.539Z,99.90
2022-07-29T18:08:10.207Z,99.90
2022-07-29T18:10:38.828Z,99.90
2022-07-29T18:13:07.270Z,99.90
2022-07-29T18:15:37.217Z,99.90
2022-07-29T18:18:34.164Z,99.90
2022-07-29T18:21:02.810Z,99.90
2022-07-29T18:23:56.678Z,99.90
2022-07-29T18:26:24.850Z,99.90
2022-07-29T18:29:28.906Z,99.90
2022-07-29T18:31:59.949Z,99.90
2022-07-29T18:34:54.399Z,99.90
2022-07-29T18:38:01.579Z,99.90
2022-07-29T18:40:11.818Z,99.90
2022-07-29T18:42:40.719Z,99.90
2022-07-29T18:45:12.196Z,99.90
2022-07-29T18:47:50.002Z,99.90
2022-07-29T18:50:19.338Z,99.90
2022-07-29T18:52:47.610Z,99.90
2022-07-29T18:55:16.271Z,99.90
2022-07-29T18:57:56.417Z,99.90
2022-07-29T19:00:25.936Z,99.90
2022-07-29T19:02:55.968Z,99.90
2022-07-29T19:05:24.650Z,99.90
2022-07-29T19:07:54.840Z,99.90
2022-07-29T19:10:23.500Z,99.90
2022-07-29T19:12:52.334Z,99.90
2022-07-29T19:15:20.786Z,99.90
2022-07-29T19:17:49.318Z,99.90
2022-07-29T19:20:19.254Z,99.90
2022-07-29T19:22:47.592Z,99.90
2022-07-29T19:25:15.872Z,99.90
2022-07-29T19:27:44.110Z,99.90
2022-07-29T19:30:12.954Z,99.90
2022-07-29T19:32:41.221Z,99.90
2022-07-29T19:35:27.320Z,99.90
2022-07-29T19:37:59.337Z,99.90
2022-07-29T19:40:28.709Z,99.90
2022-07-29T19:42:57.586Z,99.90
2022-07-29T19:45:26.219Z,99.90
2022-07-29T19:48:00.740Z,99.90
2022-07-29T19:50:29.969Z,99.90
2022-07-29T19:53:00.344Z,99.90
2022-07-29T19:55:29.016Z,99.90
2022-07-29T19:57:58.902Z,99.90
2022-07-29T20:00:28.409Z,99.90
2022-07-29T20:02:58.431Z,99.90
2022-07-29T20:05:28.423Z,99.90
2022-07-29T20:07:57.014Z,99.90
2022-07-29T20:10:26.942Z,99.90
2022-07-29T20:12:55.565Z,99.90
2022-07-29T20:15:23.926Z,99.90
2022-07-29T20:17:56.750Z,99.90
2022-07-29T20:20:26.646Z,99.90
2022-07-29T20:22:55.196Z,99.90
2022-07-29T20:25:24.175Z,99.90
2022-07-29T20:27:54.380Z,99.90
2022-07-29T20:30:23.482Z,99.90
2022-07-29T20:32:51.691Z,99.90
2022-07-29T20:35:22.299Z,99.90
2022-07-29T20:37:56.213Z,99.90
2022-07-29T20:40:25.843Z,99.90
2022-07-29T20:42:56.074Z,99.90
2022-07-29T20:45:25.136Z,99.90
2022-07-29T20:47:54.317Z,99.90
2022-07-29T20:50:24.464Z,99.90
2022-07-29T20:52:53.343Z,99.90
2022-07-29T20:55:22.169Z,99.90
2022-07-29T20:57:50.387Z,99.90
2022-07-29T21:00:20.118Z,99.90
2022-07-29T21:02:48.418Z,99.90
2022-07-29T21:05:17.058Z,99.90
2022-07-29T21:07:45.229Z,99.90
2022-07-29T21:10:14.237Z,99.90
2022-07-29T21:12:43.030Z,99.90
2022-07-29T21:15:13.566Z,99.90
2022-07-29T21:17:47.358Z,99.90
2022-07-29T21:20:16.900Z,99.90
2022-07-29T21:22:45.534Z,99.90
2022-07-29T21:25:14.080Z,99.90
2022-07-29T21:27:59.992Z,99.90
2022-07-29T21:30:28.929Z,99.90
2022-07-29T21:32:59.163Z,99.90
2022-07-29T21:36:01.780Z,99.90
2022-07-29T21:38:16.935Z,99.90
2022-07-29T21:40:45.338Z,99.90
2022-07-29T21:43:14.258Z,99.90
2022-07-29T21:45:43.704Z,99.90
2022-07-29T21:48:13.789Z,99.90
2022-07-29T21:50:42.025Z,99.90
2022-07-29T21:53:12.834Z,99.90
2022-07-29T21:55:44.202Z,99.90
2022-07-29T21:58:15.322Z,99.90
2022-07-29T22:00:44.124Z,99.90
2022-07-29T22:03:13.881Z,99.90
2022-07-29T22:05:42.118Z,99.90
2022-07-29T22:08:10.333Z,99.90
2022-07-29T22:10:38.758Z,99.90
2022-07-29T22:13:07.002Z,99.90
2022-07-29T22:15:35.287Z,99.90
2022-07-29T22:18:03.654Z,99.90
2022-07-29T22:20:33.284Z,99.90
2022-07-29T22:23:01.672Z,99.90
2022-07-29T22:25:29.919Z,99.90
2022-07-29T22:27:58.129Z,99.90
2022-07-29T22:30:26.673Z,99.90
2022-07-29T22:32:54.875Z,99.90
2022-07-29T22:35:23.066Z,99.90
2022-07-29T22:37:53.274Z,99.90
2022-07-29T22:40:21.595Z,99.90
2022-07-29T22:42:50.172Z,99.90
2022-07-29T22:45:18.382Z,99.90
2022-07-29T22:47:48.303Z,99.90
2022-07-29T22:50:17.582Z,99.90
2022-07-29T22:52:46.228Z,99.90
2022-07-29T22:55:16.786Z,99.90
2022-07-29T22:57:45.051Z,99.90
2022-07-29T23:00:14.354Z,99.90
2022-07-29T23:02:42.614Z,99.90
2022-07-29T23:05:11.435Z,99.90
2022-07-29T23:07:39.597Z,99.90
2022-07-29T23:10:08.943Z,99.90
2022-07-29T23:12:38.676Z,99.90
2022-07-29T23:15:07.785Z,99.90
2022-07-29T23:17:36.894Z,99.90
2022-07-29T23:20:08.003Z,99.90
2022-07-29T23:22:36.333Z,99.90
2022-07-29T23:25:06.235Z,99.90
2022-07-29T23:27:34.554Z,99.90
2022-07-29T23:30:04.732Z,99.90
2022-07-29T23:32:32.998Z,99.90
2022-07-29T23:35:01.415Z,99.90
2022-07-29T23:37:29.569Z,99.90
2022-07-29T23:39:57.923Z,99.90
2022-07-29T23:42:26.445Z,99.90
2022-07-29T23:44:54.660Z,99.90
2022-07-29T23:47:24.345Z,99.90
2022-07-29T23:49:52.614Z,99.90
2022-07-29T23:52:20.827Z,99.90
2022-07-29T23:54:49.087Z,99.90
2022-07-29T23:57:17.291Z,99.90
2022-07-29T23:59:45.740Z,99.90
